sensor_id;sensor_type;location;lat;lon;timestamp;pressure;altitude;pressure_sealevel;temperature;humidity
64211;BME280;50528;48.514;14.394;2022-11-13T00:00:21;95053.24;;;1.17;71.00
64211;BME280;50528;48.514;14.394;2022-11-13T00:01:55;95054.39;;;1.13;70.71
64211;BME280;50528;48.514;14.394;2022-11-13T00:03:18;95054.36;;;1.10;70.92
64211;BME280;50528;48.514;14.394;2022-11-13T00:04:40;95047.52;;;1.07;70.89
64211;BME280;50528;48.514;14.394;2022-11-13T00:06:03;95047.84;;;1.06;70.76
64211;BME280;50528;48.514;14.394;2022-11-13T00:07:24;95049.42;;;1.04;70.96
64211;BME280;50528;48.514;14.394;2022-11-13T00:08:52;95041.77;;;1.01;70.90
64211;BME280;50528;48.514;14.394;2022-11-13T00:10:15;95039.65;;;0.99;70.61
64211;BME280;50528;48.514;14.394;2022-11-13T00:11:52;95038.76;;;0.97;70.89
64211;BME280;50528;48.514;14.394;2022-11-13T00:13:14;95036.75;;;0.97;70.77
64211;BME280;50528;48.514;14.394;2022-11-13T00:14:37;95033.61;;;0.95;70.90
64211;BME280;50528;48.514;14.394;2022-11-13T00:16:03;95029.13;;;0.94;70.95
64211;BME280;50528;48.514;14.394;2022-11-13T00:17:27;95027.30;;;0.91;70.92
64211;BME280;50528;48.514;14.394;2022-11-13T00:18:49;95028.98;;;0.92;70.94
64211;BME280;50528;48.514;14.394;2022-11-13T00:20:16;95026.64;;;0.88;70.97
64211;BME280;50528;48.514;14.394;2022-11-13T00:21:39;95028.38;;;0.89;70.84
64211;BME280;50528;48.514;14.394;2022-11-13T00:23:01;95024.15;;;0.89;70.99
64211;BME280;50528;48.514;14.394;2022-11-13T00:24:23;95020.45;;;0.86;70.92
64211;BME280;50528;48.514;14.394;2022-11-13T00:25:45;95023.21;;;0.88;70.98
64211;BME280;50528;48.514;14.394;2022-11-13T00:27:07;95026.55;;;0.87;71.06
64211;BME280;50528;48.514;14.394;2022-11-13T00:28:29;95025.27;;;0.86;71.27
64211;BME280;50528;48.514;14.394;2022-11-13T00:29:51;95020.27;;;0.86;70.87
64211;BME280;50528;48.514;14.394;2022-11-13T00:31:14;95017.64;;;0.86;71.29
64211;BME280;50528;48.514;14.394;2022-11-13T00:32:36;95016.00;;;0.87;71.26
64211;BME280;50528;48.514;14.394;2022-11-13T00:33:59;95018.85;;;0.88;71.07
64211;BME280;50528;48.514;14.394;2022-11-13T00:35:41;95019.02;;;0.86;71.33
64211;BME280;50528;48.514;14.394;2022-11-13T00:37:03;95017.19;;;0.86;71.28
64211;BME280;50528;48.514;14.394;2022-11-13T00:38:26;95014.94;;;0.84;71.47
64211;BME280;50528;48.514;14.394;2022-11-13T00:39:48;95012.89;;;0.82;71.22
64211;BME280;50528;48.514;14.394;2022-11-13T00:41:10;95009.77;;;0.79;71.20
64211;BME280;50528;48.514;14.394;2022-11-13T00:42:35;95004.40;;;0.79;71.22
64211;BME280;50528;48.514;14.394;2022-11-13T00:43:56;95002.61;;;0.76;71.49
64211;BME280;50528;48.514;14.394;2022-11-13T00:45:18;94997.98;;;0.73;71.36
64211;BME280;50528;48.514;14.394;2022-11-13T00:46:41;95000.80;;;0.71;71.32
64211;BME280;50528;48.514;14.394;2022-11-13T00:48:03;94996.23;;;0.68;71.52
64211;BME280;50528;48.514;14.394;2022-11-13T00:49:25;94995.73;;;0.68;71.46
64211;BME280;50528;48.514;14.394;2022-11-13T00:50:47;94993.31;;;0.68;71.44
64211;BME280;50528;48.514;14.394;2022-11-13T00:52:12;94988.42;;;0.67;71.40
64211;BME280;50528;48.514;14.394;2022-11-13T00:53:35;94989.19;;;0.66;71.40
64211;BME280;50528;48.514;14.394;2022-11-13T00:54:57;94986.80;;;0.66;71.33
64211;BME280;50528;48.514;14.394;2022-11-13T00:56:19;94979.74;;;0.66;71.35
64211;BME280;50528;48.514;14.394;2022-11-13T00:57:41;94979.08;;;0.64;71.66
64211;BME280;50528;48.514;14.394;2022-11-13T00:59:03;94979.46;;;0.62;71.44
64211;BME280;50528;48.514;14.394;2022-11-13T01:00:25;94974.37;;;0.61;71.57
64211;BME280;50528;48.514;14.394;2022-11-13T01:01:47;94975.14;;;0.60;71.90
64211;BME280;50528;48.514;14.394;2022-11-13T01:03:12;94972.95;;;0.62;72.16
64211;BME280;50528;48.514;14.394;2022-11-13T01:04:34;94976.27;;;0.61;72.26
64211;BME280;50528;48.514;14.394;2022-11-13T01:05:57;94971.33;;;0.57;72.32
64211;BME280;50528;48.514;14.394;2022-11-13T01:07:22;94969.85;;;0.58;73.20
64211;BME280;50528;48.514;14.394;2022-11-13T01:08:44;94972.35;;;0.56;73.41
64211;BME280;50528;48.514;14.394;2022-11-13T01:10:07;94964.67;;;0.53;73.51
64211;BME280;50528;48.514;14.394;2022-11-13T01:11:29;94969.10;;;0.57;73.90
64211;BME280;50528;48.514;14.394;2022-11-13T01:12:51;94969.36;;;0.58;74.92
64211;BME280;50528;48.514;14.394;2022-11-13T01:14:13;94972.95;;;0.60;73.74
64211;BME280;50528;48.514;14.394;2022-11-13T01:15:38;94974.29;;;0.65;73.77
64211;BME280;50528;48.514;14.394;2022-11-13T01:17:00;94972.33;;;0.69;73.59
64211;BME280;50528;48.514;14.394;2022-11-13T01:18:23;94966.19;;;0.73;73.31
64211;BME280;50528;48.514;14.394;2022-11-13T01:19:46;94963.89;;;0.77;73.70
64211;BME280;50528;48.514;14.394;2022-11-13T01:21:12;94962.71;;;0.80;73.56
64211;BME280;50528;48.514;14.394;2022-11-13T01:22:35;94960.80;;;0.80;73.43
64211;BME280;50528;48.514;14.394;2022-11-13T01:23:57;94957.82;;;0.84;73.18
64211;BME280;50528;48.514;14.394;2022-11-13T01:25:19;94953.61;;;0.83;73.21
64211;BME280;50528;48.514;14.394;2022-11-13T01:26:41;94957.34;;;0.85;73.51
64211;BME280;50528;48.514;14.394;2022-11-13T01:28:03;94954.05;;;0.84;73.66
64211;BME280;50528;48.514;14.394;2022-11-13T01:29:25;94953.83;;;0.86;73.26
64211;BME280;50528;48.514;14.394;2022-11-13T01:30:47;94948.73;;;0.89;73.49
64211;BME280;50528;48.514;14.394;2022-11-13T01:32:09;94948.16;;;0.91;73.21
64211;BME280;50528;48.514;14.394;2022-11-13T01:33:32;94947.35;;;0.90;73.30
64211;BME280;50528;48.514;14.394;2022-11-13T01:34:54;94941.17;;;0.90;73.20
64211;BME280;50528;48.514;14.394;2022-11-13T01:36:19;94948.16;;;0.92;73.44
64211;BME280;50528;48.514;14.394;2022-11-13T01:37:44;94942.16;;;0.92;73.35
64211;BME280;50528;48.514;14.394;2022-11-13T01:39:09;94951.37;;;0.95;73.30
64211;BME280;50528;48.514;14.394;2022-11-13T01:40:32;94945.98;;;0.95;73.21
64211;BME280;50528;48.514;14.394;2022-11-13T01:41:54;94943.66;;;0.96;73.09
64211;BME280;50528;48.514;14.394;2022-11-13T01:43:29;94940.11;;;0.97;73.34
64211;BME280;50528;48.514;14.394;2022-11-13T01:44:56;94943.02;;;0.97;73.26
64211;BME280;50528;48.514;14.394;2022-11-13T01:46:26;94941.85;;;0.96;73.32
64211;BME280;50528;48.514;14.394;2022-11-13T01:47:49;94943.45;;;0.98;73.51
64211;BME280;50528;48.514;14.394;2022-11-13T01:49:19;94939.27;;;0.98;73.36
64211;BME280;50528;48.514;14.394;2022-11-13T01:50:43;94936.91;;;0.98;73.63
64211;BME280;50528;48.514;14.394;2022-11-13T01:52:36;94935.61;;;0.97;73.62
64211;BME280;50528;48.514;14.394;2022-11-13T01:54:01;94930.09;;;0.95;73.49
64211;BME280;50528;48.514;14.394;2022-11-13T01:55:23;94930.46;;;0.95;73.28
64211;BME280;50528;48.514;14.394;2022-11-13T01:56:46;94927.81;;;0.92;73.22
64211;BME280;50528;48.514;14.394;2022-11-13T01:58:09;94924.86;;;0.89;73.23
64211;BME280;50528;48.514;14.394;2022-11-13T01:59:39;94924.16;;;0.86;73.30
64211;BME280;50528;48.514;14.394;2022-11-13T02:01:05;94920.71;;;0.84;73.50
64211;BME280;50528;48.514;14.394;2022-11-13T02:02:26;94914.50;;;0.84;73.44
64211;BME280;50528;48.514;14.394;2022-11-13T02:03:49;94911.78;;;0.84;73.18
64211;BME280;50528;48.514;14.394;2022-11-13T02:05:10;94913.77;;;0.83;73.31
64211;BME280;50528;48.514;14.394;2022-11-13T02:06:40;94908.80;;;0.81;73.18
64211;BME280;50528;48.514;14.394;2022-11-13T02:08:03;94914.34;;;0.82;73.13
64211;BME280;50528;48.514;14.394;2022-11-13T02:09:30;94911.92;;;0.82;73.22
64211;BME280;50528;48.514;14.394;2022-11-13T02:10:54;94910.60;;;0.82;73.29
64211;BME280;50528;48.514;14.394;2022-11-13T02:12:40;94909.29;;;0.81;73.16
64211;BME280;50528;48.514;14.394;2022-11-13T02:14:05;94905.34;;;0.81;73.10
64211;BME280;50528;48.514;14.394;2022-11-13T02:15:30;94904.45;;;0.81;73.15
64211;BME280;50528;48.514;14.394;2022-11-13T02:16:58;94900.60;;;0.82;73.56
64211;BME280;50528;48.514;14.394;2022-11-13T02:18:26;94898.14;;;0.82;73.47
64211;BME280;50528;48.514;14.394;2022-11-13T02:19:54;94896.83;;;0.83;73.12
64211;BME280;50528;48.514;14.394;2022-11-13T02:21:29;94896.55;;;0.83;73.18
64211;BME280;50528;48.514;14.394;2022-11-13T02:24:46;94891.80;;;0.86;73.54
64211;BME280;50528;48.514;14.394;2022-11-13T02:26:15;94891.90;;;0.86;73.52
64211;BME280;50528;48.514;14.394;2022-11-13T02:27:45;94888.82;;;0.82;73.68
64211;BME280;50528;48.514;14.394;2022-11-13T02:29:08;94891.77;;;0.82;73.59
64211;BME280;50528;48.514;14.394;2022-11-13T02:30:33;94886.23;;;0.81;73.73
64211;BME280;50528;48.514;14.394;2022-11-13T02:31:55;94885.94;;;0.84;73.80
64211;BME280;50528;48.514;14.394;2022-11-13T02:33:23;94885.75;;;0.83;73.51
64211;BME280;50528;48.514;14.394;2022-11-13T02:34:45;94885.36;;;0.84;73.55
64211;BME280;50528;48.514;14.394;2022-11-13T02:36:08;94884.30;;;0.83;73.73
64211;BME280;50528;48.514;14.394;2022-11-13T02:37:31;94883.81;;;0.86;73.93
64211;BME280;50528;48.514;14.394;2022-11-13T02:38:55;94883.33;;;0.87;73.89
64211;BME280;50528;48.514;14.394;2022-11-13T02:40:19;94883.29;;;0.89;73.71
64211;BME280;50528;48.514;14.394;2022-11-13T02:41:41;94883.61;;;0.87;73.90
64211;BME280;50528;48.514;14.394;2022-11-13T02:43:03;94879.34;;;0.89;73.90
64211;BME280;50528;48.514;14.394;2022-11-13T02:44:25;94879.41;;;0.91;74.06
64211;BME280;50528;48.514;14.394;2022-11-13T02:45:47;94880.69;;;0.93;73.96
64211;BME280;50528;48.514;14.394;2022-11-13T02:47:09;94881.39;;;0.92;73.98
64211;BME280;50528;48.514;14.394;2022-11-13T02:48:33;94876.38;;;0.93;74.06
64211;BME280;50528;48.514;14.394;2022-11-13T02:49:55;94876.67;;;0.93;74.03
64211;BME280;50528;48.514;14.394;2022-11-13T02:51:17;94876.08;;;0.90;74.30
64211;BME280;50528;48.514;14.394;2022-11-13T02:52:39;94871.65;;;0.85;74.31
64211;BME280;50528;48.514;14.394;2022-11-13T02:54:01;94870.32;;;0.86;74.18
64211;BME280;50528;48.514;14.394;2022-11-13T02:55:23;94864.44;;;0.86;74.14
64211;BME280;50528;48.514;14.394;2022-11-13T02:56:45;94855.77;;;0.87;74.42
64211;BME280;50528;48.514;14.394;2022-11-13T02:58:07;94847.80;;;0.87;74.29
64211;BME280;50528;48.514;14.394;2022-11-13T02:59:29;94853.29;;;0.87;74.15
64211;BME280;50528;48.514;14.394;2022-11-13T03:00:51;94853.54;;;0.85;74.37
64211;BME280;50528;48.514;14.394;2022-11-13T03:02:13;94854.95;;;0.80;74.57
64211;BME280;50528;48.514;14.394;2022-11-13T03:03:36;94852.23;;;0.77;74.78
64211;BME280;50528;48.514;14.394;2022-11-13T03:05:24;94851.51;;;0.80;74.56
64211;BME280;50528;48.514;14.394;2022-11-13T03:06:58;94849.30;;;0.81;74.41
64211;BME280;50528;48.514;14.394;2022-11-13T03:08:20;94845.66;;;0.82;74.74
64211;BME280;50528;48.514;14.394;2022-11-13T03:09:44;94847.38;;;0.83;74.33
64211;BME280;50528;48.514;14.394;2022-11-13T03:11:09;94853.40;;;0.85;74.55
64211;BME280;50528;48.514;14.394;2022-11-13T03:12:32;94853.54;;;0.83;74.79
64211;BME280;50528;48.514;14.394;2022-11-13T03:13:55;94850.25;;;0.82;74.79
64211;BME280;50528;48.514;14.394;2022-11-13T03:15:17;94850.02;;;0.82;74.54
64211;BME280;50528;48.514;14.394;2022-11-13T03:16:39;94852.02;;;0.81;74.63
64211;BME280;50528;48.514;14.394;2022-11-13T03:18:05;94855.86;;;0.79;74.77
64211;BME280;50528;48.514;14.394;2022-11-13T03:19:27;94860.29;;;0.78;74.53
64211;BME280;50528;48.514;14.394;2022-11-13T03:20:50;94859.20;;;0.77;74.60
64211;BME280;50528;48.514;14.394;2022-11-13T03:22:15;94851.56;;;0.77;74.64
64211;BME280;50528;48.514;14.394;2022-11-13T03:23:38;94855.61;;;0.80;74.63
64211;BME280;50528;48.514;14.394;2022-11-13T03:25:01;94859.00;;;0.82;74.75
64211;BME280;50528;48.514;14.394;2022-11-13T03:26:31;94858.61;;;0.81;74.83
64211;BME280;50528;48.514;14.394;2022-11-13T03:27:53;94860.13;;;0.85;74.64
64211;BME280;50528;48.514;14.394;2022-11-13T03:29:15;94858.38;;;0.83;75.09
64211;BME280;50528;48.514;14.394;2022-11-13T03:30:37;94859.84;;;0.86;75.05
64211;BME280;50528;48.514;14.394;2022-11-13T03:31:59;94857.27;;;0.89;75.18
64211;BME280;50528;48.514;14.394;2022-11-13T03:33:21;94858.21;;;0.90;75.22
64211;BME280;50528;48.514;14.394;2022-11-13T03:34:43;94858.73;;;0.91;75.19
64211;BME280;50528;48.514;14.394;2022-11-13T03:36:05;94851.20;;;0.92;75.44
64211;BME280;50528;48.514;14.394;2022-11-13T03:37:27;94851.02;;;0.95;75.29
64211;BME280;50528;48.514;14.394;2022-11-13T03:38:50;94852.42;;;0.97;75.50
64211;BME280;50528;48.514;14.394;2022-11-13T03:40:12;94851.36;;;0.97;75.37
64211;BME280;50528;48.514;14.394;2022-11-13T03:41:34;94851.36;;;0.99;75.13
64211;BME280;50528;48.514;14.394;2022-11-13T03:42:56;94847.43;;;1.00;75.01
64211;BME280;50528;48.514;14.394;2022-11-13T03:44:18;94847.92;;;1.00;75.43
64211;BME280;50528;48.514;14.394;2022-11-13T03:45:39;94843.55;;;0.97;75.35
64211;BME280;50528;48.514;14.394;2022-11-13T03:47:01;94843.30;;;0.98;75.38
64211;BME280;50528;48.514;14.394;2022-11-13T03:48:23;94844.30;;;0.97;75.20
64211;BME280;50528;48.514;14.394;2022-11-13T03:49:46;94847.48;;;0.93;75.32
64211;BME280;50528;48.514;14.394;2022-11-13T03:51:08;94845.57;;;0.92;75.03
64211;BME280;50528;48.514;14.394;2022-11-13T03:52:30;94847.64;;;0.90;74.86
64211;BME280;50528;48.514;14.394;2022-11-13T03:53:53;94846.94;;;0.87;74.96
64211;BME280;50528;48.514;14.394;2022-11-13T03:55:15;94846.45;;;0.85;74.81
64211;BME280;50528;48.514;14.394;2022-11-13T03:56:37;94841.85;;;0.85;74.78
64211;BME280;50528;48.514;14.394;2022-11-13T03:57:58;94844.30;;;0.84;74.98
64211;BME280;50528;48.514;14.394;2022-11-13T03:59:20;94843.92;;;0.83;74.67
64211;BME280;50528;48.514;14.394;2022-11-13T04:00:44;94843.05;;;0.83;74.90
64211;BME280;50528;48.514;14.394;2022-11-13T04:02:06;94845.91;;;0.82;75.07
64211;BME280;50528;48.514;14.394;2022-11-13T04:03:28;94843.55;;;0.82;74.98
64211;BME280;50528;48.514;14.394;2022-11-13T04:04:51;94846.85;;;0.81;75.35
64211;BME280;50528;48.514;14.394;2022-11-13T04:06:14;94843.19;;;0.82;75.28
64211;BME280;50528;48.514;14.394;2022-11-13T04:07:36;94835.50;;;0.82;75.21
64211;BME280;50528;48.514;14.394;2022-11-13T04:08:59;94834.70;;;0.85;75.29
64211;BME280;50528;48.514;14.394;2022-11-13T04:10:22;94835.88;;;0.86;75.45
64211;BME280;50528;48.514;14.394;2022-11-13T04:11:43;94833.58;;;0.86;75.39
64211;BME280;50528;48.514;14.394;2022-11-13T04:13:06;94834.48;;;0.86;75.16
64211;BME280;50528;48.514;14.394;2022-11-13T04:14:28;94835.33;;;0.86;75.33
64211;BME280;50528;48.514;14.394;2022-11-13T04:15:50;94833.86;;;0.88;75.42
64211;BME280;50528;48.514;14.394;2022-11-13T04:17:12;94831.14;;;0.89;75.26
64211;BME280;50528;48.514;14.394;2022-11-13T04:18:34;94830.11;;;0.91;75.41
64211;BME280;50528;48.514;14.394;2022-11-13T04:19:56;94830.70;;;0.92;75.35
64211;BME280;50528;48.514;14.394;2022-11-13T04:21:19;94825.45;;;0.93;75.55
64211;BME280;50528;48.514;14.394;2022-11-13T04:22:41;94826.13;;;0.93;75.85
64211;BME280;50528;48.514;14.394;2022-11-13T04:24:03;94823.02;;;0.93;75.56
64211;BME280;50528;48.514;14.394;2022-11-13T04:25:25;94822.59;;;0.95;75.78
64211;BME280;50528;48.514;14.394;2022-11-13T04:26:48;94821.98;;;0.96;75.45
64211;BME280;50528;48.514;14.394;2022-11-13T04:28:10;94818.45;;;0.97;75.64
64211;BME280;50528;48.514;14.394;2022-11-13T04:29:33;94816.28;;;0.98;75.87
64211;BME280;50528;48.514;14.394;2022-11-13T04:30:55;94816.42;;;0.98;75.69
64211;BME280;50528;48.514;14.394;2022-11-13T04:32:17;94811.36;;;0.97;75.76
64211;BME280;50528;48.514;14.394;2022-11-13T04:33:39;94807.27;;;0.95;75.61
64211;BME280;50528;48.514;14.394;2022-11-13T04:35:01;94806.85;;;0.94;75.43
64211;BME280;50528;48.514;14.394;2022-11-13T04:36:23;94805.45;;;0.92;75.72
64211;BME280;50528;48.514;14.394;2022-11-13T04:37:45;94803.12;;;0.90;75.63
64211;BME280;50528;48.514;14.394;2022-11-13T04:39:08;94802.54;;;0.91;75.96
64211;BME280;50528;48.514;14.394;2022-11-13T04:40:30;94801.67;;;0.93;75.67
64211;BME280;50528;48.514;14.394;2022-11-13T04:41:52;94797.83;;;0.95;75.80
64211;BME280;50528;48.514;14.394;2022-11-13T04:43:33;94793.48;;;0.96;75.84
64211;BME280;50528;48.514;14.394;2022-11-13T04:44:55;94788.47;;;0.96;75.71
64211;BME280;50528;48.514;14.394;2022-11-13T04:46:20;94790.30;;;1.00;75.73
64211;BME280;50528;48.514;14.394;2022-11-13T04:47:42;94788.48;;;1.03;75.76
64211;BME280;50528;48.514;14.394;2022-11-13T04:49:04;94784.14;;;1.04;75.78
64211;BME280;50528;48.514;14.394;2022-11-13T04:50:26;94784.11;;;1.05;75.55
64211;BME280;50528;48.514;14.394;2022-11-13T04:51:49;94786.48;;;1.08;75.76
64211;BME280;50528;48.514;14.394;2022-11-13T04:53:11;94777.70;;;1.08;76.16
64211;BME280;50528;48.514;14.394;2022-11-13T04:54:33;94779.66;;;1.09;75.97
64211;BME280;50528;48.514;14.394;2022-11-13T04:55:55;94782.80;;;1.10;76.04
64211;BME280;50528;48.514;14.394;2022-11-13T04:57:16;94779.41;;;1.11;75.82
64211;BME280;50528;48.514;14.394;2022-11-13T04:58:39;94774.02;;;1.11;75.78
64211;BME280;50528;48.514;14.394;2022-11-13T05:00:02;94775.80;;;1.12;76.03
64211;BME280;50528;48.514;14.394;2022-11-13T05:01:24;94775.08;;;1.13;76.06
64211;BME280;50528;48.514;14.394;2022-11-13T05:02:46;94774.56;;;1.13;75.89
64211;BME280;50528;48.514;14.394;2022-11-13T05:04:13;94776.92;;;1.13;76.06
64211;BME280;50528;48.514;14.394;2022-11-13T05:05:35;94778.25;;;1.12;76.15
64211;BME280;50528;48.514;14.394;2022-11-13T05:06:57;94776.42;;;1.12;76.48
64211;BME280;50528;48.514;14.394;2022-11-13T05:08:19;94774.34;;;1.13;76.23
64211;BME280;50528;48.514;14.394;2022-11-13T05:09:42;94772.40;;;1.15;76.17
64211;BME280;50528;48.514;14.394;2022-11-13T05:11:04;94770.49;;;1.15;76.16
64211;BME280;50528;48.514;14.394;2022-11-13T05:12:26;94767.65;;;1.15;76.42
64211;BME280;50528;48.514;14.394;2022-11-13T05:13:48;94771.89;;;1.15;76.53
64211;BME280;50528;48.514;14.394;2022-11-13T05:15:10;94768.45;;;1.15;76.25
64211;BME280;50528;48.514;14.394;2022-11-13T05:16:34;94770.04;;;1.13;76.25
64211;BME280;50528;48.514;14.394;2022-11-13T05:17:56;94764.45;;;1.12;76.34
64211;BME280;50528;48.514;14.394;2022-11-13T05:19:18;94763.45;;;1.12;76.45
64211;BME280;50528;48.514;14.394;2022-11-13T05:20:40;94759.55;;;1.12;76.52
64211;BME280;50528;48.514;14.394;2022-11-13T05:22:03;94754.52;;;1.12;76.67
64211;BME280;50528;48.514;14.394;2022-11-13T05:23:25;94756.49;;;1.09;76.74
64211;BME280;50528;48.514;14.394;2022-11-13T05:24:47;94749.73;;;1.05;76.90
64211;BME280;50528;48.514;14.394;2022-11-13T05:26:11;94746.30;;;1.00;76.83
64211;BME280;50528;48.514;14.394;2022-11-13T05:27:33;94743.57;;;1.00;77.09
64211;BME280;50528;48.514;14.394;2022-11-13T05:28:59;94743.90;;;0.91;77.25
64211;BME280;50528;48.514;14.394;2022-11-13T05:30:21;94742.10;;;0.90;77.60
64211;BME280;50528;48.514;14.394;2022-11-13T05:31:44;94738.08;;;0.85;78.72
64211;BME280;50528;48.514;14.394;2022-11-13T05:33:07;94737.98;;;0.72;78.93
64211;BME280;50528;48.514;14.394;2022-11-13T05:34:29;94737.58;;;0.65;79.20
64211;BME280;50528;48.514;14.394;2022-11-13T05:35:51;94734.51;;;0.63;78.67
64211;BME280;50528;48.514;14.394;2022-11-13T05:37:13;94737.88;;;0.59;78.95
64211;BME280;50528;48.514;14.394;2022-11-13T05:38:37;94735.84;;;0.55;79.16
64211;BME280;50528;48.514;14.394;2022-11-13T05:39:59;94736.94;;;0.53;79.29
64211;BME280;50528;48.514;14.394;2022-11-13T05:41:22;94733.90;;;0.51;79.19
64211;BME280;50528;48.514;14.394;2022-11-13T05:42:44;94733.89;;;0.54;79.45
64211;BME280;50528;48.514;14.394;2022-11-13T05:44:06;94732.02;;;0.60;79.69
64211;BME280;50528;48.514;14.394;2022-11-13T05:45:28;94731.09;;;0.59;79.65
64211;BME280;50528;48.514;14.394;2022-11-13T05:46:50;94726.02;;;0.57;79.92
64211;BME280;50528;48.514;14.394;2022-11-13T05:48:12;94722.13;;;0.58;79.79
64211;BME280;50528;48.514;14.394;2022-11-13T05:49:34;94723.44;;;0.61;79.61
64211;BME280;50528;48.514;14.394;2022-11-13T05:51:08;94718.16;;;0.63;79.30
64211;BME280;50528;48.514;14.394;2022-11-13T05:52:30;94717.34;;;0.65;79.41
64211;BME280;50528;48.514;14.394;2022-11-13T05:53:53;94720.00;;;0.66;79.63
64211;BME280;50528;48.514;14.394;2022-11-13T05:55:15;94718.80;;;0.58;79.63
64211;BME280;50528;48.514;14.394;2022-11-13T05:56:42;94719.28;;;0.55;79.74
64211;BME280;50528;48.514;14.394;2022-11-13T05:58:04;94719.90;;;0.56;79.38
64211;BME280;50528;48.514;14.394;2022-11-13T05:59:26;94714.48;;;0.58;79.40
64211;BME280;50528;48.514;14.394;2022-11-13T06:00:48;94720.80;;;0.62;79.20
64211;BME280;50528;48.514;14.394;2022-11-13T06:02:10;94722.52;;;0.64;79.18
64211;BME280;50528;48.514;14.394;2022-11-13T06:03:32;94716.21;;;0.63;78.93
64211;BME280;50528;48.514;14.394;2022-11-13T06:04:54;94724.81;;;0.66;78.89
64211;BME280;50528;48.514;14.394;2022-11-13T06:06:19;94724.44;;;0.66;78.72
64211;BME280;50528;48.514;14.394;2022-11-13T06:07:41;94724.08;;;0.66;78.66
64211;BME280;50528;48.514;14.394;2022-11-13T06:09:05;94733.48;;;0.69;78.38
64211;BME280;50528;48.514;14.394;2022-11-13T06:10:27;94729.90;;;0.69;78.33
64211;BME280;50528;48.514;14.394;2022-11-13T06:11:49;94724.25;;;0.68;78.29
64211;BME280;50528;48.514;14.394;2022-11-13T06:13:11;94715.45;;;0.65;78.21
64211;BME280;50528;48.514;14.394;2022-11-13T06:14:34;94719.36;;;0.67;77.92
64211;BME280;50528;48.514;14.394;2022-11-13T06:16:03;94717.48;;;0.67;77.98
64211;BME280;50528;48.514;14.394;2022-11-13T06:17:26;94718.96;;;0.66;77.87
64211;BME280;50528;48.514;14.394;2022-11-13T06:18:49;94722.22;;;0.65;77.98
64211;BME280;50528;48.514;14.394;2022-11-13T06:20:11;94722.20;;;0.62;77.83
64211;BME280;50528;48.514;14.394;2022-11-13T06:21:37;94727.08;;;0.63;77.67
64211;BME280;50528;48.514;14.394;2022-11-13T06:22:59;94719.17;;;0.62;77.82
64211;BME280;50528;48.514;14.394;2022-11-13T06:24:22;94726.59;;;0.62;77.56
64211;BME280;50528;48.514;14.394;2022-11-13T06:25:44;94733.41;;;0.62;77.61
64211;BME280;50528;48.514;14.394;2022-11-13T06:27:06;94731.27;;;0.61;77.30
64211;BME280;50528;48.514;14.394;2022-11-13T06:28:32;94729.38;;;0.59;77.43
64211;BME280;50528;48.514;14.394;2022-11-13T06:29:54;94731.35;;;0.58;77.27
64211;BME280;50528;48.514;14.394;2022-11-13T06:31:20;94731.48;;;0.57;77.40
64211;BME280;50528;48.514;14.394;2022-11-13T06:32:50;94729.48;;;0.57;77.64
64211;BME280;50528;48.514;14.394;2022-11-13T06:34:13;94730.32;;;0.57;77.41
64211;BME280;50528;48.514;14.394;2022-11-13T06:35:35;94729.41;;;0.57;77.31
64211;BME280;50528;48.514;14.394;2022-11-13T06:36:57;94730.99;;;0.59;77.19
64211;BME280;50528;48.514;14.394;2022-11-13T06:38:21;94736.48;;;0.60;77.53
64211;BME280;50528;48.514;14.394;2022-11-13T06:39:44;94730.55;;;0.61;77.43
64211;BME280;50528;48.514;14.394;2022-11-13T06:41:07;94727.45;;;0.62;77.35
64211;BME280;50528;48.514;14.394;2022-11-13T06:42:29;94729.48;;;0.65;77.38
64211;BME280;50528;48.514;14.394;2022-11-13T06:43:52;94733.28;;;0.64;77.29
64211;BME280;50528;48.514;14.394;2022-11-13T06:45:20;94732.29;;;0.65;77.28
64211;BME280;50528;48.514;14.394;2022-11-13T06:46:42;94733.90;;;0.66;77.55
64211;BME280;50528;48.514;14.394;2022-11-13T06:48:04;94735.70;;;0.68;77.57
64211;BME280;50528;48.514;14.394;2022-11-13T06:49:27;94734.98;;;0.68;77.42
64211;BME280;50528;48.514;14.394;2022-11-13T06:50:49;94735.40;;;0.69;77.33
64211;BME280;50528;48.514;14.394;2022-11-13T06:52:12;94734.62;;;0.69;77.50
64211;BME280;50528;48.514;14.394;2022-11-13T06:53:34;94728.13;;;0.64;77.64
64211;BME280;50528;48.514;14.394;2022-11-13T06:54:55;94725.45;;;0.65;77.97
64211;BME280;50528;48.514;14.394;2022-11-13T06:56:18;94719.75;;;0.65;77.83
64211;BME280;50528;48.514;14.394;2022-11-13T06:57:40;94720.27;;;0.67;77.82
64211;BME280;50528;48.514;14.394;2022-11-13T06:59:03;94720.59;;;0.70;79.20
64211;BME280;50528;48.514;14.394;2022-11-13T07:00:29;94723.90;;;0.65;79.87
64211;BME280;50528;48.514;14.394;2022-11-13T07:01:57;94722.92;;;0.61;79.58
64211;BME280;50528;48.514;14.394;2022-11-13T07:03:21;94727.30;;;0.62;79.66
64211;BME280;50528;48.514;14.394;2022-11-13T07:04:44;94719.71;;;0.65;79.57
64211;BME280;50528;48.514;14.394;2022-11-13T07:06:12;94719.95;;;0.70;79.29
64211;BME280;50528;48.514;14.394;2022-11-13T07:07:35;94720.03;;;0.75;79.21
64211;BME280;50528;48.514;14.394;2022-11-13T07:08:57;94717.27;;;0.80;78.99
64211;BME280;50528;48.514;14.394;2022-11-13T07:10:19;94721.08;;;0.86;79.07
64211;BME280;50528;48.514;14.394;2022-11-13T07:11:41;94725.52;;;0.93;78.86
64211;BME280;50528;48.514;14.394;2022-11-13T07:13:03;94722.45;;;0.99;78.77
64211;BME280;50528;48.514;14.394;2022-11-13T07:14:25;94731.02;;;1.10;78.74
64211;BME280;50528;48.514;14.394;2022-11-13T07:15:47;94731.36;;;1.18;78.58
64211;BME280;50528;48.514;14.394;2022-11-13T07:17:10;94723.89;;;1.57;78.77
64211;BME280;50528;48.514;14.394;2022-11-13T07:18:32;94717.41;;;2.16;78.09
64211;BME280;50528;48.514;14.394;2022-11-13T07:19:57;94714.76;;;2.72;77.18
64211;BME280;50528;48.514;14.394;2022-11-13T07:21:20;94711.27;;;3.19;76.64
64211;BME280;50528;48.514;14.394;2022-11-13T07:22:42;94707.99;;;3.66;76.42
64211;BME280;50528;48.514;14.394;2022-11-13T07:24:04;94710.23;;;4.11;75.13